sensor_id;sensor_type;location;lat;lon;timestamp;P1;durP1;ratioP1;P2;durP2;ratioP2
38240;SDS011;24037;49.536;8.500;2023-07-29T00:01:34;14.55;;;9.43;;
38240;SDS011;24037;49.536;8.500;2023-07-29T00:04:00;15.68;;;9.95;;
38240;SDS011;24037;49.536;8.500;2023-07-29T00:06:26;14.68;;;9.68;;
38240;SDS011;24037;49.536;8.500;2023-07-29T00:08:53;17.52;;;9.27;;
38240;SDS011;24037;49.536;8.500;2023-07-29T00:11:19;14.90;;;9.32;;
38240;SDS011;24037;49.536;8.500;2023-07-29T00:13:45;16.92;;;10.38;;
38240;SDS011;24037;49.536;8.500;2023-07-29T00:16:15;12.00;;;8.13;;
38240;SDS011;24037;49.536;8.500;2023-07-29T00:18:43;13.55;;;8.68;;
38240;SDS011;24037;49.536;8.500;2023-07-29T00:21:09;12.60;;;7.85;;
38240;SDS011;24037;49.536;8.500;2023-07-29T00:23:36;11.00;;;7.63;;
38240;SDS011;24037;49.536;8.500;2023-07-29T00:26:02;11.80;;;8.02;;
38240;SDS011;24037;49.536;8.500;2023-07-29T00:28:28;49.25;;;10.10;;
38240;SDS011;24037;49.536;8.500;2023-07-29T00:30:54;10.93;;;7.47;;
38240;SDS011;24037;49.536;8.500;2023-07-29T00:33:21;65.93;;;24.90;;
38240;SDS011;24037;49.536;8.500;2023-07-29T00:35:47;11.40;;;7.07;;
38240;SDS011;24037;49.536;8.500;2023-07-29T00:38:14;10.13;;;6.93;;
38240;SDS011;24037;49.536;8.500;2023-07-29T00:40:40;11.73;;;8.05;;
38240;SDS011;24037;49.536;8.500;2023-07-29T00:43:06;11.02;;;7.25;;
38240;SDS011;24037;49.536;8.500;2023-07-29T00:45:35;10.20;;;6.78;;
38240;SDS011;24037;49.536;8.500;2023-07-29T00:48:02;7.97;;;5.88;;
38240;SDS011;24037;49.536;8.500;2023-07-29T00:50:29;8.73;;;6.03;;
38240;SDS011;24037;49.536;8.500;2023-07-29T00:55:26;7.70;;;4.35;;
38240;SDS011;24037;49.536;8.500;2023-07-29T00:57:53;8.85;;;5.47;;
38240;SDS011;24037;49.536;8.500;2023-07-29T01:00:20;8.50;;;5.30;;
38240;SDS011;24037;49.536;8.500;2023-07-29T01:02:50;8.43;;;5.13;;
38240;SDS011;24037;49.536;8.500;2023-07-29T01:05:18;7.55;;;5.43;;
38240;SDS011;24037;49.536;8.500;2023-07-29T01:10:22;7.40;;;5.20;;
38240;SDS011;24037;49.536;8.500;2023-07-29T01:15:33;7.55;;;4.72;;
38240;SDS011;24037;49.536;8.500;2023-07-29T01:18:10;138.02;;;15.88;;
38240;SDS011;24037;49.536;8.500;2023-07-29T01:20:41;160.70;;;27.75;;
38240;SDS011;24037;49.536;8.500;2023-07-29T01:23:15;268.40;;;47.90;;
38240;SDS011;24037;49.536;8.500;2023-07-29T01:25:41;595.35;;;81.53;;
38240;SDS011;24037;49.536;8.500;2023-07-29T01:28:08;77.13;;;20.35;;
38240;SDS011;24037;49.536;8.500;2023-07-29T01:30:37;181.73;;;23.90;;
38240;SDS011;24037;49.536;8.500;2023-07-29T01:35:42;436.58;;;66.32;;
38240;SDS011;24037;49.536;8.500;2023-07-29T01:38:17;74.15;;;8.05;;
38240;SDS011;24037;49.536;8.500;2023-07-29T01:40:44;41.38;;;8.73;;
38240;SDS011;24037;49.536;8.500;2023-07-29T01:43:13;6.35;;;3.85;;
38240;SDS011;24037;49.536;8.500;2023-07-29T01:45:39;16.85;;;5.82;;
38240;SDS011;24037;49.536;8.500;2023-07-29T01:48:06;5.15;;;3.00;;
38240;SDS011;24037;49.536;8.500;2023-07-29T01:50:33;7.15;;;4.15;;
38240;SDS011;24037;49.536;8.500;2023-07-29T01:53:00;6.75;;;3.65;;
38240;SDS011;24037;49.536;8.500;2023-07-29T01:55:26;17.20;;;10.25;;
38240;SDS011;24037;49.536;8.500;2023-07-29T01:57:53;20.83;;;16.27;;
38240;SDS011;24037;49.536;8.500;2023-07-29T02:00:20;43.60;;;18.40;;
38240;SDS011;24037;49.536;8.500;2023-07-29T02:02:47;21.38;;;11.48;;
38240;SDS011;24037;49.536;8.500;2023-07-29T02:05:13;197.57;;;33.30;;
38240;SDS011;24037;49.536;8.500;2023-07-29T02:07:39;140.20;;;20.27;;
38240;SDS011;24037;49.536;8.500;2023-07-29T02:10:05;20.42;;;5.53;;
38240;SDS011;24037;49.536;8.500;2023-07-29T02:12:33;407.10;;;67.00;;
38240;SDS011;24037;49.536;8.500;2023-07-29T02:15:01;229.20;;;33.95;;
38240;SDS011;24037;49.536;8.500;2023-07-29T02:17:27;28.77;;;19.63;;
38240;SDS011;24037;49.536;8.500;2023-07-29T02:19:53;15.02;;;14.05;;
38240;SDS011;24037;49.536;8.500;2023-07-29T02:22:19;10.68;;;8.57;;
38240;SDS011;24037;49.536;8.500;2023-07-29T02:24:46;7.82;;;6.10;;
38240;SDS011;24037;49.536;8.500;2023-07-29T02:27:12;63.58;;;35.60;;
38240;SDS011;24037;49.536;8.500;2023-07-29T02:29:38;148.85;;;54.70;;
38240;SDS011;24037;49.536;8.500;2023-07-29T02:32:04;81.55;;;34.50;;
38240;SDS011;24037;49.536;8.500;2023-07-29T02:34:31;65.72;;;22.02;;
38240;SDS011;24037;49.536;8.500;2023-07-29T02:36:57;24.05;;;11.50;;
38240;SDS011;24037;49.536;8.500;2023-07-29T02:39:23;132.23;;;47.35;;
38240;SDS011;24037;49.536;8.500;2023-07-29T02:41:49;6.55;;;3.92;;
38240;SDS011;24037;49.536;8.500;2023-07-29T02:44:16;34.58;;;9.35;;
38240;SDS011;24037;49.536;8.500;2023-07-29T02:46:42;60.33;;;17.38;;
38240;SDS011;24037;49.536;8.500;2023-07-29T02:49:08;201.18;;;64.57;;
38240;SDS011;24037;49.536;8.500;2023-07-29T02:51:34;68.03;;;25.88;;
38240;SDS011;24037;49.536;8.500;2023-07-29T02:54:01;4.90;;;3.65;;
38240;SDS011;24037;49.536;8.500;2023-07-29T02:56:27;41.72;;;11.65;;
38240;SDS011;24037;49.536;8.500;2023-07-29T02:58:53;33.00;;;21.02;;
38240;SDS011;24037;49.536;8.500;2023-07-29T03:01:20;42.53;;;12.85;;
38240;SDS011;24037;49.536;8.500;2023-07-29T03:03:46;53.75;;;25.58;;
38240;SDS011;24037;49.536;8.500;2023-07-29T03:06:13;41.13;;;21.35;;
38240;SDS011;24037;49.536;8.500;2023-07-29T03:08:39;41.53;;;12.20;;
38240;SDS011;24037;49.536;8.500;2023-07-29T03:11:06;38.30;;;36.38;;
38240;SDS011;24037;49.536;8.500;2023-07-29T03:13:33;106.82;;;86.25;;
38240;SDS011;24037;49.536;8.500;2023-07-29T03:16:10;10.93;;;9.13;;
38240;SDS011;24037;49.536;8.500;2023-07-29T03:18:49;54.20;;;50.20;;
38240;SDS011;24037;49.536;8.500;2023-07-29T03:21:15;75.60;;;44.85;;
38240;SDS011;24037;49.536;8.500;2023-07-29T03:23:41;404.23;;;107.88;;
38240;SDS011;24037;49.536;8.500;2023-07-29T03:26:08;11.23;;;6.25;;
38240;SDS011;24037;49.536;8.500;2023-07-29T03:28:38;7.85;;;5.72;;
38240;SDS011;24037;49.536;8.500;2023-07-29T03:31:05;7.72;;;5.28;;
38240;SDS011;24037;49.536;8.500;2023-07-29T03:33:33;8.93;;;5.63;;
38240;SDS011;24037;49.536;8.500;2023-07-29T03:35:59;8.63;;;5.20;;
38240;SDS011;24037;49.536;8.500;2023-07-29T03:38:25;6.43;;;4.88;;
38240;SDS011;24037;49.536;8.500;2023-07-29T03:40:51;6.22;;;5.07;;
38240;SDS011;24037;49.536;8.500;2023-07-29T03:43:19;6.43;;;4.97;;
38240;SDS011;24037;49.536;8.500;2023-07-29T03:45:45;7.25;;;4.60;;
38240;SDS011;24037;49.536;8.500;2023-07-29T03:48:12;6.40;;;4.78;;
38240;SDS011;24037;49.536;8.500;2023-07-29T03:50:38;6.45;;;4.35;;
38240;SDS011;24037;49.536;8.500;2023-07-29T03:53:05;11.65;;;8.75;;
38240;SDS011;24037;49.536;8.500;2023-07-29T03:55:32;4.40;;;3.47;;
38240;SDS011;24037;49.536;8.500;2023-07-29T03:57:58;296.13;;;57.00;;
38240;SDS011;24037;49.536;8.500;2023-07-29T04:00:26;85.68;;;76.60;;
38240;SDS011;24037;49.536;8.500;2023-07-29T04:02:52;35.05;;;24.85;;
38240;SDS011;24037;49.536;8.500;2023-07-29T04:05:19;20.02;;;7.72;;
38240;SDS011;24037;49.536;8.500;2023-07-29T04:07:45;39.53;;;9.32;;
38240;SDS011;24037;49.536;8.500;2023-07-29T04:10:11;30.63;;;27.65;;
38240;SDS011;24037;49.536;8.500;2023-07-29T04:12:38;80.95;;;68.10;;
38240;SDS011;24037;49.536;8.500;2023-07-29T04:15:04;126.47;;;113.25;;
38240;SDS011;24037;49.536;8.500;2023-07-29T04:17:31;41.75;;;11.57;;
38240;SDS011;24037;49.536;8.500;2023-07-29T04:19:57;7.05;;;4.72;;
38240;SDS011;24037;49.536;8.500;2023-07-29T04:22:29;35.22;;;11.27;;
38240;SDS011;24037;49.536;8.500;2023-07-29T04:24:55;25.20;;;22.52;;
38240;SDS011;24037;49.536;8.500;2023-07-29T04:27:21;6.68;;;3.50;;
38240;SDS011;24037;49.536;8.500;2023-07-29T04:29:47;10.77;;;9.57;;
38240;SDS011;24037;49.536;8.500;2023-07-29T04:32:13;5.78;;;4.00;;
38240;SDS011;24037;49.536;8.500;2023-07-29T04:34:41;7.10;;;4.32;;
38240;SDS011;24037;49.536;8.500;2023-07-29T04:37:07;6.63;;;4.22;;
38240;SDS011;24037;49.536;8.500;2023-07-29T04:39:34;11.68;;;7.60;;
38240;SDS011;24037;49.536;8.500;2023-07-29T04:42:00;8.15;;;5.93;;
38240;SDS011;24037;49.536;8.500;2023-07-29T04:44:26;6.80;;;5.72;;
38240;SDS011;24037;49.536;8.500;2023-07-29T04:46:52;5.35;;;4.00;;
38240;SDS011;24037;49.536;8.500;2023-07-29T04:49:19;8.00;;;4.30;;
38240;SDS011;24037;49.536;8.500;2023-07-29T04:51:45;5.13;;;3.88;;
38240;SDS011;24037;49.536;8.500;2023-07-29T04:54:11;5.90;;;4.28;;
38240;SDS011;24037;49.536;8.500;2023-07-29T04:56:37;6.30;;;4.18;;
38240;SDS011;24037;49.536;8.500;2023-07-29T04:59:03;63.47;;;14.93;;
38240;SDS011;24037;49.536;8.500;2023-07-29T05:01:30;5.25;;;4.50;;
38240;SDS011;24037;49.536;8.500;2023-07-29T05:03:56;8.70;;;5.75;;
38240;SDS011;24037;49.536;8.500;2023-07-29T05:06:22;7.35;;;5.72;;
38240;SDS011;24037;49.536;8.500;2023-07-29T05:08:49;9.65;;;6.68;;
38240;SDS011;24037;49.536;8.500;2023-07-29T05:11:15;9.80;;;8.30;;
38240;SDS011;24037;49.536;8.500;2023-07-29T05:13:41;14.85;;;9.45;;
38240;SDS011;24037;49.536;8.500;2023-07-29T05:16:10;10.82;;;9.60;;
38240;SDS011;24037;49.536;8.500;2023-07-29T05:18:36;11.15;;;8.77;;
38240;SDS011;24037;49.536;8.500;2023-07-29T05:21:04;9.63;;;8.75;;
38240;SDS011;24037;49.536;8.500;2023-07-29T05:23:30;10.10;;;9.20;;
38240;SDS011;24037;49.536;8.500;2023-07-29T05:25:56;11.07;;;10.07;;
38240;SDS011;24037;49.536;8.500;2023-07-29T05:28:22;11.65;;;10.65;;
38240;SDS011;24037;49.536;8.500;2023-07-29T05:30:48;12.52;;;10.90;;
38240;SDS011;24037;49.536;8.500;2023-07-29T05:33:15;12.63;;;11.38;;
38240;SDS011;24037;49.536;8.500;2023-07-29T05:35:41;12.23;;;10.98;;
38240;SDS011;24037;49.536;8.500;2023-07-29T05:38:07;13.38;;;12.38;;
38240;SDS011;24037;49.536;8.500;2023-07-29T05:40:34;1999.90;;;999.90;;
38240;SDS011;24037;49.536;8.500;2023-07-29T05:43:00;1999.90;;;999.90;;
38240;SDS011;24037;49.536;8.500;2023-07-29T05:45:28;1999.90;;;999.90;;
38240;SDS011;24037;49.536;8.500;2023-07-29T05:47:56;1999.90;;;999.90;;
38240;SDS011;24037;49.536;8.500;2023-07-29T05:50:23;1999.90;;;999.90;;
38240;SDS011;24037;49.536;8.500;2023-07-29T05:52:49;1999.90;;;999.90;;
38240;SDS011;24037;49.536;8.500;2023-07-29T05:55:15;1999.90;;;999.90;;
38240;SDS011;24037;49.536;8.500;2023-07-29T05:57:42;1999.90;;;999.90;;
38240;SDS011;24037;49.536;8.500;2023-07-29T06:00:08;1999.90;;;999.90;;
38240;SDS011;24037;49.536;8.500;2023-07-29T06:02:41;1999.90;;;999.90;;
38240;SDS011;24037;49.536;8.500;2023-07-29T06:05:09;1999.90;;;999.90;;
38240;SDS011;24037;49.536;8.500;2023-07-29T06:07:36;1999.90;;;999.90;;
38240;SDS011;24037;49.536;8.500;2023-07-29T06:10:02;1999.90;;;999.90;;
38240;SDS011;24037;49.536;8.500;2023-07-29T06:12:28;1999.90;;;999.90;;
38240;SDS011;24037;49.536;8.500;2023-07-29T06:14:54;1999.90;;;999.90;;
38240;SDS011;24037;49.536;8.500;2023-07-29T06:17:21;1999.90;;;999.90;;
38240;SDS011;24037;49.536;8.500;2023-07-29T06:19:47;1999.90;;;999.90;;
38240;SDS011;24037;49.536;8.500;2023-07-29T06:22:13;1999.90;;;999.90;;
38240;SDS011;24037;49.536;8.500;2023-07-29T06:24:39;1999.90;;;999.90;;
38240;SDS011;24037;49.536;8.500;2023-07-29T06:27:05;1999.90;;;999.90;;
38240;SDS011;24037;49.536;8.500;2023-07-29T06:29:32;2.72;;;1.65;;
38240;SDS011;24037;49.536;8.500;2023-07-29T06:31:58;4.13;;;3.38;;
38240;SDS011;24037;49.536;8.500;2023-07-29T06:34:24;2.60;;;1.90;;
38240;SDS011;24037;49.536;8.500;2023-07-29T06:36:50;93.45;;;14.52;;
38240;SDS011;24037;49.536;8.500;2023-07-29T06:39:17;2.78;;;1.10;;
38240;SDS011;24037;49.536;8.500;2023-07-29T06:41:43;76.30;;;24.40;;
38240;SDS011;24037;49.536;8.500;2023-07-29T06:44:09;4.70;;;1.50;;
38240;SDS011;24037;49.536;8.500;2023-07-29T06:46:36;2.83;;;1.17;;
38240;SDS011;24037;49.536;8.500;2023-07-29T06:49:02;1.85;;;1.20;;
38240;SDS011;24037;49.536;8.500;2023-07-29T06:51:28;2.78;;;1.42;;
38240;SDS011;24037;49.536;8.500;2023-07-29T06:53:58;3.60;;;1.63;;
38240;SDS011;24037;49.536;8.500;2023-07-29T06:56:24;5.35;;;1.52;;
38240;SDS011;24037;49.536;8.500;2023-07-29T06:58:50;2.30;;;1.60;;
38240;SDS011;24037;49.536;8.500;2023-07-29T07:01:16;3.17;;;1.40;;
38240;SDS011;24037;49.536;8.500;2023-07-29T07:03:42;48.63;;;27.52;;
38240;SDS011;24037;49.536;8.500;2023-07-29T07:06:08;2.72;;;1.65;;
38240;SDS011;24037;49.536;8.500;2023-07-29T07:08:35;2.33;;;1.33;;
38240;SDS011;24037;49.536;8.500;2023-07-29T07:11:01;1999.90;;;999.90;;
38240;SDS011;24037;49.536;8.500;2023-07-29T07:13:27;1999.90;;;999.90;;
38240;SDS011;24037;49.536;8.500;2023-07-29T07:15:56;1999.90;;;999.90;;
38240;SDS011;24037;49.536;8.500;2023-07-29T07:18:22;1999.90;;;999.90;;
38240;SDS011;24037;49.536;8.500;2023-07-29T07:20:49;1999.90;;;999.90;;
38240;SDS011;24037;49.536;8.500;2023-07-29T07:23:16;1999.90;;;999.90;;
38240;SDS011;24037;49.536;8.500;2023-07-29T07:25:42;1999.90;;;999.90;;
38240;SDS011;24037;49.536;8.500;2023-07-29T07:28:09;1999.90;;;999.90;;
38240;SDS011;24037;49.536;8.500;2023-07-29T07:30:35;1999.90;;;999.90;;
38240;SDS011;24037;49.536;8.500;2023-07-29T07:33:09;1999.90;;;999.90;;
38240;SDS011;24037;49.536;8.500;2023-07-29T07:35:35;1999.90;;;999.90;;
38240;SDS011;24037;49.536;8.500;2023-07-29T07:38:01;1999.90;;;999.90;;
38240;SDS011;24037;49.536;8.500;2023-07-29T07:40:32;1999.90;;;999.90;;
38240;SDS011;24037;49.536;8.500;2023-07-29T07:42:59;1999.90;;;999.90;;
38240;SDS011;24037;49.536;8.500;2023-07-29T07:45:25;1999.90;;;999.90;;
38240;SDS011;24037;49.536;8.500;2023-07-29T07:47:52;1999.90;;;999.90;;
38240;SDS011;24037;49.536;8.500;2023-07-29T07:50:21;1999.90;;;999.90;;
38240;SDS011;24037;49.536;8.500;2023-07-29T07:52:47;1999.90;;;999.90;;
38240;SDS011;24037;49.536;8.500;2023-07-29T07:55:13;1999.90;;;999.90;;
38240;SDS011;24037;49.536;8.500;2023-07-29T07:57:39;1999.90;;;999.90;;
38240;SDS011;24037;49.536;8.500;2023-07-29T08:00:05;1999.90;;;999.90;;
38240;SDS011;24037;49.536;8.500;2023-07-29T08:02:38;1999.90;;;999.90;;
38240;SDS011;24037;49.536;8.500;2023-07-29T08:05:04;1999.90;;;999.90;;
38240;SDS011;24037;49.536;8.500;2023-07-29T08:07:31;1999.90;;;999.90;;
38240;SDS011;24037;49.536;8.500;2023-07-29T08:09:57;1999.90;;;999.90;;
38240;SDS011;24037;49.536;8.500;2023-07-29T08:12:23;1999.90;;;999.90;;
38240;SDS011;24037;49.536;8.500;2023-07-29T08:14:49;1999.90;;;999.90;;
38240;SDS011;24037;49.536;8.500;2023-07-29T08:17:15;1999.90;;;999.90;;
38240;SDS011;24037;49.536;8.500;2023-07-29T08:19:42;1999.90;;;999.90;;
38240;SDS011;24037;49.536;8.500;2023-07-29T08:22:08;1999.90;;;999.90;;
38240;SDS011;24037;49.536;8.500;2023-07-29T08:24:34;1999.90;;;999.90;;
38240;SDS011;24037;49.536;8.500;2023-07-29T08:27:00;1999.90;;;999.90;;
38240;SDS011;24037;49.536;8.500;2023-07-29T08:29:27;4.10;;;2.78;;
38240;SDS011;24037;49.536;8.500;2023-07-29T08:31:53;7.72;;;2.80;;
38240;SDS011;24037;49.536;8.500;2023-07-29T08:34:20;5.07;;;2.25;;
38240;SDS011;24037;49.536;8.500;2023-07-29T08:36:47;4.45;;;2.45;;
38240;SDS011;24037;49.536;8.500;2023-07-29T08:39:13;3.50;;;2.50;;
38240;SDS011;24037;49.536;8.500;2023-07-29T08:44:18;3.90;;;1.55;;
38240;SDS011;24037;49.536;8.500;2023-07-29T08:46:50;5.95;;;2.10;;
38240;SDS011;24037;49.536;8.500;2023-07-29T08:49:18;6.35;;;1.50;;
38240;SDS011;24037;49.536;8.500;2023-07-29T08:51:48;2.33;;;1.70;;
38240;SDS011;24037;49.536;8.500;2023-07-29T08:54:14;3.47;;;1.60;;
38240;SDS011;24037;49.536;8.500;2023-07-29T08:56:41;4.63;;;1.75;;
38240;SDS011;24037;49.536;8.500;2023-07-29T08:59:08;3.60;;;2.08;;
38240;SDS011;24037;49.536;8.500;2023-07-29T09:01:39;2.78;;;1.77;;
38240;SDS011;24037;49.536;8.500;2023-07-29T09:04:05;3.40;;;1.95;;
38240;SDS011;24037;49.536;8.500;2023-07-29T09:06:31;3.50;;;1.60;;
38240;SDS011;24037;49.536;8.500;2023-07-29T09:08:58;6.18;;;1.30;;
38240;SDS011;24037;49.536;8.500;2023-07-29T09:11:25;3.58;;;1.38;;
38240;SDS011;24037;49.536;8.500;2023-07-29T09:13:52;2.10;;;1.35;;
38240;SDS011;24037;49.536;8.500;2023-07-29T09:16:20;2.13;;;1.23;;
38240;SDS011;24037;49.536;8.500;2023-07-29T09:18:50;1.58;;;1.10;;
38240;SDS011;24037;49.536;8.500;2023-07-29T09:21:17;1.20;;;0.90;;
38240;SDS011;24037;49.536;8.500;2023-07-29T09:23:48;4.05;;;1.42;;
38240;SDS011;24037;49.536;8.500;2023-07-29T09:26:21;2.17;;;1.38;;
38240;SDS011;24037;49.536;8.500;2023-07-29T09:28:51;1.98;;;1.10;;
38240;SDS011;24037;49.536;8.500;2023-07-29T09:33:46;1.73;;;1.50;;
38240;SDS011;24037;49.536;8.500;2023-07-29T09:36:12;35.67;;;6.40;;
38240;SDS011;24037;49.536;8.500;2023-07-29T09:38:39;1999.90;;;999.90;;
38240;SDS011;24037;49.536;8.500;2023-07-29T09:41:05;1999.90;;;999.90;;
38240;SDS011;24037;49.536;8.500;2023-07-29T09:43:32;1999.90;;;999.90;;
38240;SDS011;24037;49.536;8.500;2023-07-29T09:46:03;1999.90;;;999.90;;
38240;SDS011;24037;49.536;8.500;2023-07-29T09:48:34;1999.90;;;999.90;;
38240;SDS011;24037;49.536;8.500;2023-07-29T09:51:13;1999.90;;;999.90;;
38240;SDS011;24037;49.536;8.500;2023-07-29T09:53:42;1999.90;;;999.90;;
38240;SDS011;24037;49.536;8.500;2023-07-29T09:56:12;1999.90;;;999.90;;
38240;SDS011;24037;49.536;8.500;2023-07-29T09:58:39;1999.90;;;999.90;;
38240;SDS011;24037;49.536;8.500;2023-07-29T10:01:08;1999.90;;;999.90;;
38240;SDS011;24037;49.536;8.500;2023-07-29T10:03:35;1999.90;;;999.90;;
38240;SDS011;24037;49.536;8.500;2023-07-29T10:06:05;1999.90;;;999.90;;
38240;SDS011;24037;49.536;8.500;2023-07-29T10:08:32;1999.90;;;999.90;;
38240;SDS011;24037;49.536;8.500;2023-07-29T10:11:07;1999.90;;;999.90;;
38240;SDS011;24037;49.536;8.500;2023-07-29T10:13:34;1999.90;;;999.90;;
38240;SDS011;24037;49.536;8.500;2023-07-29T10:16:02;1999.90;;;999.90;;
38240;SDS011;24037;49.536;8.500;2023-07-29T10:18:29;1999.90;;;999.90;;
38240;SDS011;24037;49.536;8.500;2023-07-29T10:20:57;1999.90;;;999.90;;
38240;SDS011;24037;49.536;8.500;2023-07-29T10:23:24;1999.90;;;999.90;;
38240;SDS011;24037;49.536;8.500;2023-07-29T10:25:57;1999.90;;;999.90;;
38240;SDS011;24037;49.536;8.500;2023-07-29T10:28:29;1999.90;;;999.90;;
38240;SDS011;24037;49.536;8.500;2023-07-29T10:30:57;1999.90;;;999.90;;
38240;SDS011;24037;49.536;8.500;2023-07-29T10:33:25;1999.90;;;999.90;;
38240;SDS011;24037;49.536;8.500;2023-07-29T10:35:52;1999.90;;;999.90;;
38240;SDS011;24037;49.536;8.500;2023-07-29T10:38:21;1999.90;;;999.90;;
38240;SDS011;24037;49.536;8.500;2023-07-29T10:40:52;1999.90;;;999.90;;
38240;SDS011;24037;49.536;8.500;2023-07-29T10:43:26;1999.90;;;999.90;;
38240;SDS011;24037;49.536;8.500;2023-07-29T10:45:56;1999.90;;;999.90;;
38240;SDS011;24037;49.536;8.500;2023-07-29T10:51:21;1999.90;;;999.90;;
38240;SDS011;24037;49.536;8.500;2023-07-29T10:53:48;1999.90;;;999.90;;
38240;SDS011;24037;49.536;8.500;2023-07-29T10:56:24;1999.90;;;999.90;;
38240;SDS011;24037;49.536;8.500;2023-07-29T11:01:42;1999.90;;;999.90;;
38240;SDS011;24037;49.536;8.500;2023-07-29T11:07:01;1999.90;;;999.90;;
38240;SDS011;24037;49.536;8.500;2023-07-29T11:09:51;1999.90;;;999.90;;
38240;SDS011;24037;49.536;8.500;2023-07-29T11:15:18;1999.90;;;999.90;;
38240;SDS011;24037;49.536;8.500;2023-07-29T11:17:50;1999.90;;;999.90;;
38240;SDS011;24037;49.536;8.500;2023-07-29T11:20:18;1999.90;;;999.90;;
38240;SDS011;24037;49.536;8.500;2023-07-29T11:22:47;1999.90;;;999.90;;
38240;SDS011;24037;49.536;8.500;2023-07-29T11:25:14;1999.90;;;999.90;;
38240;SDS011;24037;49.536;8.500;2023-07-29T11:27:42;1999.90;;;999.90;;
38240;SDS011;24037;49.536;8.500;2023-07-29T11:30:12;1999.90;;;999.90;;
38240;SDS011;24037;49.536;8.500;2023-07-29T11:32:40;1999.90;;;999.90;;
38240;SDS011;24037;49.536;8.500;2023-07-29T11:35:11;1999.90;;;999.90;;
38240;SDS011;24037;49.536;8.500;2023-07-29T11:37:46;684.45;;;102.97;;
38240;SDS011;24037;49.536;8.500;2023-07-29T11:40:18;7.60;;;1.38;;
38240;SDS011;24037;49.536;8.500;2023-07-29T11:42:45;3.35;;;1.50;;
38240;SDS011;24037;49.536;8.500;2023-07-29T11:45:13;2.63;;;1.20;;
38240;SDS011;24037;49.536;8.500;2023-07-29T11:47:40;3.67;;;1.27;;
38240;SDS011;24037;49.536;8.500;2023-07-29T11:50:08;2.63;;;1.13;;
38240;SDS011;24037;49.536;8.500;2023-07-29T11:52:36;3.05;;;1.40;;
38240;SDS011;24037;49.536;8.500;2023-07-29T11:55:03;2.10;;;1.45;;
38240;SDS011;24037;49.536;8.500;2023-07-29T11:57:31;79.25;;;73.97;;
38240;SDS011;24037;49.536;8.500;2023-07-29T12:00:01;2.25;;;1.85;;
38240;SDS011;24037;49.536;8.500;2023-07-29T12:02:35;3.08;;;2.60;;
38240;SDS011;24037;49.536;8.500;2023-07-29T12:05:03;3.05;;;2.80;;
38240;SDS011;24037;49.536;8.500;2023-07-29T12:07:30;3.42;;;3.08;;
38240;SDS011;24037;49.536;8.500;2023-07-29T12:09:58;3.15;;;2.95;;
38240;SDS011;24037;49.536;8.500;2023-07-29T12:12:25;3.25;;;3.05;;
38240;SDS011;24037;49.536;8.500;2023-07-29T12:14:53;4.38;;;4.07;;
38240;SDS011;24037;49.536;8.500;2023-07-29T12:17:20;6.13;;;5.03;;
38240;SDS011;24037;49.536;8.500;2023-07-29T12:19:46;5.43;;;4.65;;
38240;SDS011;24037;49.536;8.500;2023-07-29T12:22:17;8.00;;;7.60;;
38240;SDS011;24037;49.536;8.500;2023-07-29T12:24:45;10.10;;;9.57;;
38240;SDS011;24037;49.536;8.500;2023-07-29T12:27:15;30.70;;;29.40;;
38240;SDS011;24037;49.536;8.500;2023-07-29T12:29:41;221.15;;;196.68;;
38240;SDS011;24037;49.536;8.500;2023-07-29T12:32:08;166.60;;;28.42;;
38240;SDS011;24037;49.536;8.500;2023-07-29T12:34:36;2.25;;;1.80;;
38240;SDS011;24037;49.536;8.500;2023-07-29T12:37:04;1999.90;;;999.90;;
38240;SDS011;24037;49.536;8.500;2023-07-29T12:39:35;25.65;;;24.73;;
38240;SDS011;24037;49.536;8.500;2023-07-29T12:42:07;24.88;;;23.88;;
38240;SDS011;24037;49.536;8.500;2023-07-29T12:44:34;34.75;;;33.45;;
38240;SDS011;24037;49.536;8.500;2023-07-29T12:47:02;21.75;;;20.75;;
38240;SDS011;24037;49.536;8.500;2023-07-29T12:49:29;15.80;;;15.13;;
38240;SDS011;24037;49.536;8.500;2023-07-29T12:51:56;16.05;;;15.25;;
38240;SDS011;24037;49.536;8.500;2023-07-29T12:54:25;17.25;;;16.55;;
38240;SDS011;24037;49.536;8.500;2023-07-29T12:56:52;18.20;;;17.50;;
38240;SDS011;24037;49.536;8.500;2023-07-29T12:59:18;21.77;;;20.77;;
38240;SDS011;24037;49.536;8.500;2023-07-29T13:01:44;18.08;;;17.38;;
38240;SDS011;24037;49.536;8.500;2023-07-29T13:04:10;16.92;;;16.13;;
38240;SDS011;24037;49.536;8.500;2023-07-29T13:06:37;16.75;;;16.15;;
38240;SDS011;24037;49.536;8.500;2023-07-29T13:09:03;16.75;;;16.10;;
38240;SDS011;24037;49.536;8.500;2023-07-29T13:11:31;23.13;;;22.23;;
38240;SDS011;24037;49.536;8.500;2023-07-29T13:14:00;16.98;;;16.38;;
38240;SDS011;24037;49.536;8.500;2023-07-29T13:16:27;21.27;;;20.42;;
38240;SDS011;24037;49.536;8.500;2023-07-29T13:18:54;19.73;;;18.83;;
38240;SDS011;24037;49.536;8.500;2023-07-29T13:21:21;16.00;;;15.35;;
38240;SDS011;24037;49.536;8.500;2023-07-29T13:23:47;21.23;;;20.40;;
38240;SDS011;24037;49.536;8.500;2023-07-29T13:26:14;21.88;;;21.08;;
38240;SDS011;24037;49.536;8.500;2023-07-29T13:28:40;22.40;;;21.60;;
38240;SDS011;24037;49.536;8.500;2023-07-29T13:31:06;15.65;;;15.05;;
38240;SDS011;24037;49.536;8.500;2023-07-29T13:33:32;24.08;;;22.52;;
38240;SDS011;24037;49.536;8.500;2023-07-29T13:36:00;17.25;;;16.65;;
38240;SDS011;24037;49.536;8.500;2023-07-29T13:38:28;16.73;;;16.02;;
38240;SDS011;24037;49.536;8.500;2023-07-29T13:40:55;14.35;;;13.85;;
38240;SDS011;24037;49.536;8.500;2023-07-29T13:43:21;13.82;;;13.15;;
38240;SDS011;24037;49.536;8.500;2023-07-29T13:45:47;18.15;;;17.40;;
38240;SDS011;24037;49.536;8.500;2023-07-29T13:48:15;16.73;;;16.13;;
38240;SDS011;24037;49.536;8.500;2023-07-29T13:50:41;17.40;;;16.70;;
38240;SDS011;24037;49.536;8.500;2023-07-29T13:53:09;15.63;;;15.02;;
38240;SDS011;24037;49.536;8.500;2023-07-29T13:55:35;14.98;;;14.38;;
38240;SDS011;24037;49.536;8.500;2023-07-29T13:58:02;17.05;;;16.35;;
38240;SDS011;24037;49.536;8.500;2023-07-29T14:00:28;14.93;;;14.32;;
38240;SDS011;24037;49.536;8.500;2023-07-29T14:02:54;17.48;;;16.70;;
38240;SDS011;24037;49.536;8.500;2023-07-29T14:05:20;15.32;;;14.73;;
38240;SDS011;24037;49.536;8.500;2023-07-29T14:07:46;13.60;;;13.10;;
38240;SDS011;24037;49.536;8.500;2023-07-29T14:10:13;15.93;;;15.32;;
38240;SDS011;24037;49.536;8.500;2023-07-29T14:12:39;15.98;;;15.38;;
38240;SDS011;24037;49.536;8.500;2023-07-29T14:15:05;16.63;;;16.02;;
38240;SDS011;24037;49.536;8.500;2023-07-29T14:17:32;14.95;;;14.35;;
38240;SDS011;24037;49.536;8.500;2023-07-29T14:19:58;14.75;;;14.25;;
38240;SDS011;24037;49.536;8.500;2023-07-29T14:22:24;17.13;;;16.42;;
38240;SDS011;24037;49.536;8.500;2023-07-29T14:24:50;17.13;;;16.50;;
38240;SDS011;24037;49.536;8.500;2023-07-29T14:27:17;16.75;;;16.05;;
38240;SDS011;24037;49.536;8.500;2023-07-29T14:29:43;16.55;;;15.95;;
38240;SDS011;24037;49.536;8.500;2023-07-29T14:32:09;18.27;;;17.58;;
38240;SDS011;24037;49.536;8.500;2023-07-29T14:34:35;18.77;;;18.08;;
38240;SDS011;24037;49.536;8.500;2023-07-29T14:37:01;16.05;;;15.45;;
38240;SDS011;24037;49.536;8.500;2023-07-29T14:39:27;15.90;;;15.20;;
38240;SDS011;24037;49.536;8.500;2023-07-29T14:41:53;18.67;;;17.98;;
38240;SDS011;24037;49.536;8.500;2023-07-29T14:44:20;14.98;;;14.27;;
38240;SDS011;24037;49.536;8.500;2023-07-29T14:46:46;17.83;;;17.13;;